Time;durP1;ratioP1;P1;durP2;ratioP2;P2;SDS_P1;SDS_P2;PMS_P1;PMS_P2;Temp;Humidity;BMP_temperature;BMP_pressure;BME280_temperature;BME280_humidity;BME280_pressure;Samples;Min_cycle;Max_cycle;Signal;HPM_P1;HPM_P2
2021/03/26 00:01:00;;;;;;;30.30;16.23;;;;;;;1.23;100.00;101334.31;5011651;28;20404;-89
2021/03/26 00:03:29;;;;;;;31.40;17.13;;;;;;;1.19;100.00;101329.88;5008645;28;20061;-89
2021/03/26 00:06:05;;;;;;;36.23;18.37;;;;;;;1.15;100.00;101333.22;4996740;28;20046;-88
2021/03/26 00:08:32;;;;;;;35.00;17.03;;;;;;;1.07;100.00;101336.47;4975770;28;20081;-89
2021/03/26 00:10:58;;;;;;;32.67;17.73;;;;;;;1.02;100.00;101332.88;4984707;28;20034;-89
2021/03/26 00:13:25;;;;;;;26.27;14.47;;;;;;;0.98;100.00;101330.13;4990449;28;20049;-88
2021/03/26 00:15:52;;;;;;;32.30;16.93;;;;;;;0.92;100.00;101327.31;4979152;28;20060;-89
2021/03/26 00:18:18;;;;;;;28.57;15.23;;;;;;;0.86;100.00;101327.16;4995465;28;20037;-89
2021/03/26 00:20:45;;;;;;;29.47;15.80;;;;;;;0.80;100.00;101330.47;4992296;28;20060;-89
2021/03/26 00:23:11;;;;;;;29.60;17.37;;;;;;;0.77;100.00;101320.88;4971587;28;20044;-88
2021/03/26 00:25:38;;;;;;;31.03;15.87;;;;;;;0.75;100.00;101324.22;4978831;28;20236;-88
2021/03/26 00:28:06;;;;;;;31.13;16.23;;;;;;;0.73;100.00;101323.31;4989545;28;20034;-89
2021/03/26 00:30:34;;;;;;;32.20;16.13;;;;;;;0.67;100.00;101318.78;5010841;28;20068;-89
2021/03/26 00:33:01;;;;;;;32.07;15.83;;;;;;;0.62;100.00;101319.50;4990063;28;20042;-88
2021/03/26 00:35:28;;;;;;;29.93;15.23;;;;;;;0.56;100.00;101318.47;4976747;28;20045;-89
2021/03/26 00:37:55;;;;;;;32.13;16.40;;;;;;;0.53;100.00;101328.78;4974787;28;20122;-89
2021/03/26 00:40:22;;;;;;;29.17;15.63;;;;;;;0.51;100.00;101320.06;4979593;28;20056;-89
2021/03/26 00:42:49;;;;;;;31.37;17.80;;;;;;;0.46;100.00;101319.03;4996357;28;20046;-89
2021/03/26 00:45:21;;;;;;;32.40;15.73;;;;;;;0.44;100.00;101319.84;4979920;28;20287;-89
2021/03/26 00:47:48;;;;;;;34.33;16.10;;;;;;;0.38;100.00;101317.91;4999480;28;20529;-89
2021/03/26 00:50:18;;;;;;;30.37;16.50;;;;;;;0.35;100.00;101314.34;5001975;28;20091;-89
2021/03/26 00:52:45;;;;;;;32.07;17.03;;;;;;;0.31;100.00;101315.97;4977862;28;20320;-89
2021/03/26 00:55:12;;;;;;;30.70;17.17;;;;;;;0.26;100.00;101317.53;4979986;28;20136;-89
2021/03/26 00:57:38;;;;;;;32.40;16.40;;;;;;;0.24;100.00;101317.47;4977183;28;20037;-89
2021/03/26 01:00:07;;;;;;;34.17;17.47;;;;;;;0.24;100.00;101314.00;5010029;28;20067;-89
2021/03/26 01:02:33;;;;;;;30.17;17.37;;;;;;;0.23;100.00;101310.50;4975396;28;20053;-88
2021/03/26 01:05:02;;;;;;;35.07;16.30;;;;;;;0.19;100.00;101315.59;4979632;28;20112;-89
2021/03/26 01:07:28;;;;;;;31.93;17.40;;;;;;;0.15;100.00;101311.97;4995400;28;20129;-88
2021/03/26 01:09:54;;;;;;;26.03;15.23;;;;;;;0.10;100.00;101316.16;5008146;28;20099;-88
2021/03/26 01:12:21;;;;;;;28.27;15.93;;;;;;;0.06;100.00;101314.28;4976042;28;20564;-89
2021/03/26 01:14:47;;;;;;;33.53;17.00;;;;;;;0.02;100.00;101312.44;4976642;28;20072;-89
2021/03/26 01:17:13;;;;;;;33.20;17.87;;;;;;;-0.02;100.00;101320.94;4992259;28;20049;-89
2021/03/26 01:19:42;;;;;;;32.27;18.27;;;;;;;-0.08;100.00;101316.47;4979286;28;20409;-89
2021/03/26 01:22:10;;;;;;;32.17;18.13;;;;;;;-0.10;100.00;101312.03;4979151;28;20465;-89
2021/03/26 01:24:37;;;;;;;35.17;18.33;;;;;;;-0.11;100.00;101316.34;4992011;28;20073;-89
2021/03/26 01:27:04;;;;;;;34.00;19.13;;;;;;;-0.12;100.00;101322.38;4995045;28;20041;-89
2021/03/26 01:29:30;;;;;;;40.60;18.67;;;;;;;-0.15;100.00;101317.09;4984607;28;20045;-88
2021/03/26 01:31:57;;;;;;;35.03;16.43;;;;;;;-0.22;100.00;101317.69;4990697;28;20060;-89
2021/03/26 01:34:24;;;;;;;38.87;19.83;;;;;;;-0.26;100.00;101315.81;4998216;28;20049;-88
2021/03/26 01:36:50;;;;;;;32.87;17.77;;;;;;;-0.32;100.00;101313.03;4970920;28;20052;-88
2021/03/26 01:39:17;;;;;;;32.97;17.90;;;;;;;-0.38;100.00;101302.44;4982452;28;20050;-89
2021/03/26 01:41:46;;;;;;;35.77;18.70;;;;;;;-0.42;100.00;101298.88;4971786;28;20319;-88
2021/03/26 01:44:14;;;;;;;40.10;20.20;;;;;;;-0.45;100.00;101297.84;4975305;28;20060;-89
2021/03/26 01:46:44;;;;;;;35.40;18.20;;;;;;;-0.50;100.00;101289.06;4998513;28;20042;-89
2021/03/26 01:49:11;;;;;;;35.63;18.97;;;;;;;-0.55;100.00;101288.88;4992296;28;20034;-89
2021/03/26 01:51:40;;;;;;;33.47;18.60;;;;;;;-0.62;100.00;101300.75;4970702;28;20493;-89
2021/03/26 01:54:10;;;;;;;36.83;19.17;;;;;;;-0.68;100.00;101300.53;4982956;28;20054;-89
2021/03/26 01:56:37;;;;;;;34.47;18.70;;;;;;;-0.72;100.00;101302.97;4965897;28;20069;-88
2021/03/26 01:59:04;;;;;;;33.50;16.97;;;;;;;-0.76;100.00;101303.69;4982814;28;20524;-89
2021/03/26 02:01:46;;;;;;;34.83;17.43;;;;;;;-0.81;100.00;101295.75;4995254;28;20046;-89
2021/03/26 02:04:49;;;;;;;37.23;19.00;;;;;;;-0.83;100.00;101301.72;5004325;28;20038;-88
2021/03/26 02:07:17;;;;;;;38.23;18.17;;;;;;;-0.88;100.00;101292.06;4920373;29;20051;-89
2021/03/26 02:09:44;;;;;;;38.93;18.83;;;;;;;-0.90;100.00;101306.69;4963217;28;20049;-88
2021/03/26 02:12:24;;;;;;;36.53;17.13;;;;;;;-0.91;100.00;101309.22;4998528;28;20045;-89
2021/03/26 02:15:04;;;;;;;41.43;19.83;;;;;;;-0.86;100.00;101315.44;4979501;28;20388;-89
2021/03/26 02:17:32;;;;;;;40.27;19.43;;;;;;;-0.87;100.00;101316.28;4990626;28;20041;-89
2021/03/26 02:20:05;;;;;;;38.27;18.67;;;;;;;-0.87;100.00;101311.09;5001595;28;20042;-88
2021/03/26 02:22:32;;;;;;;39.30;18.37;;;;;;;-0.86;100.00;101313.72;5014638;28;20069;-89
2021/03/26 02:24:59;;;;;;;36.70;18.87;;;;;;;-0.87;100.00;101313.69;4980864;28;20064;-89
2021/03/26 02:27:35;;;;;;;36.47;18.33;;;;;;;-0.87;100.00;101314.56;4998495;28;20049;-89
2021/03/26 02:30:11;;;;;;;32.43;17.63;;;;;;;-0.87;100.00;101316.28;4976458;28;20034;-89
2021/03/26 02:32:40;;;;;;;38.30;21.13;;;;;;;-0.86;100.00;101315.44;4988964;28;20049;-88
2021/03/26 02:35:18;;;;;;;38.43;17.73;;;;;;;-0.83;100.00;101319.88;5006149;28;20095;-90
2021/03/26 02:38:13;;;;;;;38.07;18.33;;;;;;;-0.81;100.00;101308.72;4996836;28;20092;-89
2021/03/26 02:40:51;;;;;;;36.45;17.70;;;;;;;-0.77;100.00;101322.69;4997606;28;20058;-88
2021/03/26 02:43:41;;;;;;;38.40;19.80;;;;;;;-0.69;100.00;101319.53;4997919;28;20068;-88
2021/03/26 02:46:17;;;;;;;38.83;21.37;;;;;;;-0.65;100.00;101320.53;4985781;28;20045;-90
2021/03/26 02:49:08;;;;;;;48.40;22.10;;;;;;;-0.62;100.00;101318.91;4982304;28;20042;-89
2021/03/26 02:51:52;;;;;;;42.67;22.70;;;;;;;-0.61;100.00;101318.09;4993385;28;20047;-89
2021/03/26 02:54:28;;;;;;;46.97;22.33;;;;;;;-0.60;100.00;101311.19;5003586;28;20100;-89
2021/03/26 02:57:05;;;;;;;42.87;20.83;;;;;;;-0.60;100.00;101308.59;4999369;28;20072;-88
2021/03/26 02:59:52;;;;;;;38.37;20.80;;;;;;;-0.59;100.00;101316.44;4982753;28;20048;-90
2021/03/26 03:02:21;;;;;;;39.87;20.47;;;;;;;-0.51;100.00;101315.81;4982630;28;20042;-89
2021/03/26 03:04:50;;;;;;;42.00;20.77;;;;;;;-0.48;100.00;101305.56;4996807;28;20081;-89
2021/03/26 03:07:19;;;;;;;39.77;21.67;;;;;;;-0.46;100.00;101304.75;4982124;28;20053;-89
2021/03/26 03:09:47;;;;;;;37.33;20.47;;;;;;;-0.43;100.00;101311.75;5014030;28;20049;-89
2021/03/26 03:12:25;;;;;;;32.97;17.63;;;;;;;-0.42;100.00;101303.16;4981415;28;20144;-90
2021/03/26 03:14:57;;;;;;;37.33;20.27;;;;;;;-0.42;100.00;101308.34;4978953;28;20408;-89
2021/03/26 03:17:27;;;;;;;36.57;19.23;;;;;;;-0.41;100.00;101302.34;4993215;28;20061;-89
2021/03/26 03:20:05;;;;;;;37.63;20.13;;;;;;;-0.40;100.00;101302.38;4994758;28;20046;-89
2021/03/26 03:22:40;;;;;;;34.17;18.60;;;;;;;-0.36;100.00;101306.84;4994345;28;20053;-89
2021/03/26 03:25:10;;;;;;;41.47;21.20;;;;;;;-0.30;100.00;101307.06;4962716;28;20169;-89
2021/03/26 03:27:57;;;;;;;46.43;21.90;;;;;;;-0.23;100.00;101312.47;4980243;28;20553;-90
2021/03/26 03:30:53;;;;;;;39.93;19.60;;;;;;;-0.20;100.00;101309.97;5016021;28;20049;-89
2021/03/26 03:33:35;;;;;;;36.77;17.87;;;;;;;-0.14;100.00;101310.16;4986074;28;20136;-89
2021/03/26 03:36:05;;;;;;;42.60;21.03;;;;;;;-0.11;100.00;101308.53;4993184;28;20092;-89
2021/03/26 03:38:52;;;;;;;38.47;20.83;;;;;;;-0.10;100.00;101309.44;4987315;28;20038;-88
2021/03/26 03:41:57;;;;;;;37.90;18.73;;;;;;;-0.10;100.00;101315.50;4979791;28;20096;-89
2021/03/26 03:44:31;;;;;;;36.50;19.00;;;;;;;-0.08;100.00;101313.84;4977901;28;20136;-89
2021/03/26 03:47:14;;;;;;;32.97;17.43;;;;;;;-0.07;100.00;101310.44;4994653;28;20064;-89
2021/03/26 03:49:52;;;;;;;30.60;17.53;;;;;;;-0.04;100.00;101307.91;4972010;28;20565;-89
2021/03/26 03:52:34;;;;;;;31.97;17.87;;;;;;;0.02;100.00;101302.06;4983478;28;20133;-89
2021/03/26 03:55:04;;;;;;;35.27;19.23;;;;;;;0.08;100.00;101303.94;4966159;28;20056;-89
2021/03/26 03:58:05;;;;;;;36.90;18.10;;;;;;;0.13;100.00;101308.47;5013129;28;20132;-89
2021/03/26 04:00:35;;;;;;;37.90;19.63;;;;;;;0.19;100.00;101310.38;4993561;28;20132;-89
2021/03/26 04:03:07;;;;;;;39.43;19.57;;;;;;;0.23;100.00;101309.63;4984423;28;20048;-89
2021/03/26 04:05:49;;;;;;;39.10;19.17;;;;;;;0.29;100.00;101307.25;4996771;28;20132;-89
2021/03/26 04:08:23;;;;;;;41.33;20.60;;;;;;;0.33;100.00;101309.09;4994240;28;20038;-89
2021/03/26 04:10:56;;;;;;;39.60;19.95;;;;;;;0.38;100.00;101304.91;4968151;28;20048;-89
2021/03/26 04:13:26;;;;;;;42.80;20.38;;;;;;;0.42;100.00;101312.00;5012865;28;20053;-89
2021/03/26 04:15:55;;;;;;;41.53;21.40;;;;;;;0.46;100.00;101294.75;4968046;28;20400;-88
2021/03/26 04:18:28;;;;;;;36.53;18.23;;;;;;;0.48;100.00;101301.75;4992885;28;20575;-89
2021/03/26 04:21:00;;;;;;;37.43;20.70;;;;;;;0.51;100.00;101306.19;4978014;28;20208;-89
2021/03/26 04:23:32;;;;;;;39.83;19.73;;;;;;;0.53;100.00;101302.81;4981138;28;20046;-89
2021/03/26 04:26:06;;;;;;;32.73;17.37;;;;;;;0.59;100.00;101303.81;4973017;28;20034;-89
2021/03/26 04:28:36;;;;;;;30.92;17.52;;;;;;;0.61;100.00;101302.16;4995533;28;20099;-89
2021/03/26 04:31:05;;;;;;;33.53;16.93;;;;;;;0.64;100.00;101307.44;4968838;28;20045;-89
2021/03/26 04:33:31;;;;;;;36.93;16.73;;;;;;;0.66;100.00;101304.03;4987747;28;20270;-89
2021/03/26 04:36:02;;;;;;;36.57;18.00;;;;;;;0.70;100.00;101307.63;4969758;28;20103;-89
2021/03/26 04:38:43;;;;;;;33.20;18.07;;;;;;;0.74;100.00;101306.88;4993802;28;20049;-89
2021/03/26 04:41:38;;;;;;;39.97;20.40;;;;;;;0.77;100.00;101314.78;4996849;28;20430;-89
2021/03/26 04:44:26;;;;;;;40.23;20.63;;;;;;;0.81;100.00;101306.22;4977888;28;20225;-89
2021/03/26 04:46:59;;;;;;;38.73;18.60;;;;;;;0.82;100.00;101303.66;4988724;28;20170;-89
2021/03/26 04:49:36;;;;;;;32.63;17.70;;;;;;;0.86;100.00;101302.03;4977586;28;20129;-90
2021/03/26 04:52:03;;;;;;;32.70;17.87;;;;;;;0.89;100.00;101303.84;4961517;28;20108;-89
2021/03/26 04:54:41;;;;;;;26.77;17.40;;;;;;;0.89;100.00;101299.50;4992454;28;20103;-89
2021/03/26 04:57:15;;;;;;;34.23;17.63;;;;;;;0.91;100.00;101300.44;5005847;28;20045;-89
2021/03/26 05:00:14;;;;;;;34.20;18.20;;;;;;;0.96;100.00;101298.84;4992122;28;20487;-89
2021/03/26 05:03:00;;;;;;;37.00;18.43;;;;;;;1.02;100.00;101301.66;5007648;28;20074;-88
2021/03/26 05:05:27;;;;;;;35.65;18.38;;;;;;;1.07;100.00;101289.63;5008595;28;20054;-88
2021/03/26 05:08:02;;;;;;;37.57;19.43;;;;;;;1.13;100.00;101289.81;5012815;28;20056;-88
2021/03/26 05:10:29;;;;;;;33.07;18.07;;;;;;;1.17;100.00;101289.88;4993918;28;20047;-88
2021/03/26 05:12:59;;;;;;;30.90;17.57;;;;;;;1.21;100.00;101296.94;4998236;28;20060;-88
2021/03/26 05:15:39;;;;;;;31.50;16.97;;;;;;;1.25;100.00;101298.78;5005518;28;20131;-88
2021/03/26 05:18:57;;;;;;;33.53;17.43;;;;;;;1.30;100.00;101298.09;4996678;28;20055;-88
2021/03/26 05:21:40;;;;;;;38.33;19.90;;;;;;;1.38;100.00;101301.78;4928443;29;20126;-88
2021/03/26 05:24:12;;;;;;;39.43;19.40;;;;;;;1.42;100.00;101300.13;4934155;29;20047;-88
2021/03/26 05:26:38;;;;;;;37.33;20.70;;;;;;;1.46;100.00;101304.59;4996371;28;20079;-88
2021/03/26 05:29:05;;;;;;;36.13;18.70;;;;;;;1.51;100.00;101297.75;4990100;28;20045;-88
2021/03/26 05:31:43;;;;;;;35.67;19.17;;;;;;;1.55;100.00;101304.81;4989172;28;20048;-88
2021/03/26 05:34:22;;;;;;;38.43;19.27;;;;;;;1.59;100.00;101305.78;4992520;28;20084;-88
2021/03/26 05:37:08;;;;;;;34.77;19.00;;;;;;;1.63;100.00;101313.72;4982843;28;20502;-88
2021/03/26 05:39:36;;;;;;;32.90;18.03;;;;;;;1.68;100.00;101314.75;4968239;28;20049;-88
2021/03/26 05:42:11;;;;;;;29.90;16.50;;;;;;;1.76;100.00;101314.03;4993995;28;20045;-88
2021/03/26 05:45:03;;;;;;;34.17;17.03;;;;;;;1.84;100.00;101322.91;4990760;28;20042;-88
2021/03/26 05:48:07;;;;;;;37.07;20.03;;;;;;;1.91;100.00;101324.84;5003332;28;20068;-89
2021/03/26 05:50:58;;;;;;;33.93;17.97;;;;;;;1.95;100.00;101311.94;5011264;28;20049;-88
2021/03/26 05:53:30;;;;;;;34.17;17.57;;;;;;;2.02;100.00;101314.69;5004127;28;20132;-88
2021/03/26 05:56:03;;;;;;;29.30;15.53;;;;;;;2.08;100.00;101320.06;5010182;28;20526;-88
2021/03/26 05:58:38;;;;;;;31.10;17.73;;;;;;;2.12;100.00;101314.09;4992460;28;20042;-88
2021/03/26 06:01:24;;;;;;;32.10;17.20;;;;;;;2.18;100.00;101315.09;5004161;28;20045;-87
2021/03/26 06:04:18;;;;;;;31.00;17.00;;;;;;;2.23;100.00;101325.63;4994214;28;20041;-89
2021/03/26 06:07:18;;;;;;;31.98;17.67;;;;;;;2.28;100.00;101325.75;5007146;28;20731;-87
2021/03/26 06:10:23;;;;;;;35.13;17.90;;;;;;;2.34;100.00;101331.09;5002171;28;20042;-88
2021/03/26 06:12:58;;;;;;;29.00;16.10;;;;;;;2.37;100.00;101326.84;4984333;28;20041;-88
2021/03/26 06:15:55;;;;;;;31.37;17.53;;;;;;;2.43;100.00;101323.50;4999916;28;20510;-88
2021/03/26 06:18:38;;;;;;;34.20;18.47;;;;;;;2.49;100.00;101319.31;5010888;28;20057;-88
2021/03/26 06:21:35;;;;;;;32.87;18.87;;;;;;;2.56;100.00;101324.66;4974210;28;20249;-87
2021/03/26 06:24:19;;;;;;;30.30;16.87;;;;;;;2.60;100.00;101329.97;4983679;28;20052;-88
2021/03/26 06:26:57;;;;;;;35.10;18.57;;;;;;;2.68;100.00;101327.53;4989876;28;20068;-88
2021/03/26 06:29:53;;;;;;;35.53;19.10;;;;;;;2.72;100.00;101329.38;4991749;28;20100;-88
2021/03/26 06:33:02;;;;;;;31.27;17.70;;;;;;;2.77;100.00;101328.63;4966589;28;20576;-89
2021/03/26 06:35:53;;;;;;;29.37;17.67;;;;;;;2.86;100.00;101329.66;4998293;28;20363;-89
2021/03/26 06:38:38;;;;;;;28.20;16.53;;;;;;;2.94;100.00;101325.50;4999412;28;20045;-88
2021/03/26 06:41:25;;;;;;;29.65;16.85;;;;;;;3.00;100.00;101331.72;4996524;28;20038;-88
2021/03/26 06:44:29;;;;;;;34.63;18.37;;;;;;;3.09;100.00;101333.66;5010751;28;20482;-88
2021/03/26 06:47:07;;;;;;;30.40;17.20;;;;;;;3.18;100.00;101327.72;5014071;28;20041;-88
2021/03/26 06:49:56;;;;;;;34.87;18.07;;;;;;;3.24;100.00;101331.34;4992808;28;20041;-88
2021/03/26 06:52:26;;;;;;;29.73;17.30;;;;;;;3.29;100.00;101342.78;5006908;28;20145;-88
2021/03/26 06:55:25;;;;;;;29.83;17.30;;;;;;;3.37;100.00;101338.59;5007971;28;20105;-88
2021/03/26 06:58:29;;;;;;;30.77;16.63;;;;;;;3.46;100.00;101334.41;4994146;28;20068;-88
2021/03/26 07:01:07;;;;;;;31.33;16.47;;;;;;;3.52;100.00;101342.34;5004479;28;20053;-88
2021/03/26 07:03:51;;;;;;;46.97;25.43;;;;;;;3.57;100.00;101338.09;5004002;28;20509;-88
2021/03/26 07:06:52;;;;;;;79.38;41.67;;;;;;;3.63;100.00;101343.44;4989421;28;20053;-88
2021/03/26 07:09:31;;;;;;;100.10;49.47;;;;;;;3.68;100.00;101341.78;4990426;28;20049;-88
2021/03/26 07:12:41;;;;;;;65.63;34.83;;;;;;;3.71;100.00;101338.34;4975141;28;20083;-88
2021/03/26 07:15:12;;;;;;;54.50;28.13;;;;;;;3.74;100.00;101343.63;4989601;28;20053;-87
2021/03/26 07:17:45;;;;;;;40.53;23.10;;;;;;;3.76;100.00;101350.63;4973849;28;20049;-88
2021/03/26 07:20:46;;;;;;;38.57;20.37;;;;;;;3.81;100.00;101345.50;4997841;28;20042;-88
2021/03/26 07:23:37;;;;;;;30.87;17.53;;;;;;;3.86;100.00;101342.09;4980025;28;20038;-89
2021/03/26 07:26:13;;;;;;;31.67;17.37;;;;;;;3.94;100.00;101348.34;4986113;28;20069;-90
2021/03/26 07:29:28;;;;;;;30.53;15.67;;;;;;;4.01;100.00;101348.44;5013735;28;20040;-88
2021/03/26 07:32:19;;;;;;;28.27;15.63;;;;;;;4.04;100.00;101353.75;5021691;28;20041;-89
2021/03/26 07:35:17;;;;;;;30.65;15.32;;;;;;;4.09;100.00;101346.84;4997059;28;20057;-89
2021/03/26 07:37:57;;;;;;;30.20;17.27;;;;;;;4.14;100.00;101346.09;5011524;28;20061;-89
2021/03/26 07:40:34;;;;;;;31.17;18.43;;;;;;;4.18;100.00;101344.38;5031489;28;20080;-89
2021/03/26 07:43:25;;;;;;;31.67;17.20;;;;;;;4.26;100.00;101341.91;5004082;28;20048;-90
2021/03/26 07:46:04;;;;;;;39.47;20.70;;;;;;;4.29;100.00;101350.69;4984974;28;20095;-90
2021/03/26 07:48:55;;;;;;;40.40;23.27;;;;;;;4.28;100.00;101345.41;5024011;28;20033;-89
2021/03/26 07:51:46;;;;;;;35.70;21.30;;;;;;;4.38;100.00;101347.34;5015310;28;20259;-89
2021/03/26 07:54:37;;;;;;;34.83;20.67;;;;;;;4.47;100.00;101343.13;4971066;28;20433;-89
2021/03/26 07:57:13;;;;;;;33.40;19.07;;;;;;;4.55;100.00;101340.63;4996265;28;20430;-89
2021/03/26 08:00:02;;;;;;;32.10;18.13;;;;;;;4.60;100.00;101338.94;4991420;28;20050;-90
2021/03/26 08:02:52;;;;;;;34.73;17.97;;;;;;;4.64;100.00;101342.50;4985681;28;20069;-89
2021/03/26 08:05:21;;;;;;;35.87;17.97;;;;;;;4.71;100.00;101340.00;4993447;28;20084;-89
2021/03/26 08:08:06;;;;;;;35.43;18.20;;;;;;;4.78;100.00;101335.72;4995522;28;20052;-90
2021/03/26 08:10:37;;;;;;;33.27;17.90;;;;;;;4.91;100.00;101335.03;4986307;28;20128;-89
2021/03/26 08:13:22;;;;;;;35.80;19.73;;;;;;;5.14;100.00;101342.31;4991796;28;20042;-89
2021/03/26 08:16:25;;;;;;;29.55;19.38;;;;;;;5.36;100.00;101344.31;4995944;28;20052;-90
2021/03/26 08:19:02;;;;;;;33.40;20.10;;;;;;;5.71;100.00;101338.56;5013870;28;20055;-89
2021/03/26 08:21:56;;;;;;;29.20;19.13;;;;;;;6.07;100.00;101345.97;5014167;28;20137;-90
2021/03/26 08:24:25;;;;;;;32.93;20.73;;;;;;;6.53;100.00;101341.06;5004648;28;20049;-90
2021/03/26 08:27:01;;;;;;;39.57;22.50;;;;;;;7.12;100.00;101336.16;5004057;28;20077;-91
2021/03/26 08:30:02;;;;;;;38.87;21.17;;;;;;;7.83;100.00;101337.25;5003777;28;20049;-89
2021/03/26 08:32:54;;;;;;;36.70;21.03;;;;;;;8.28;98.54;101330.25;4946900;28;20051;-87
2021/03/26 08:35:53;;;;;;;38.17;22.23;;;;;;;8.56;95.35;101337.28;4986376;28;20057;-88
2021/03/26 08:38:50;;;;;;;38.07;22.30;;;;;;;8.59;91.66;101326.75;4992698;28;20041;-87
2021/03/26 08:41:26;;;;;;;40.73;20.73;;;;;;;8.89;92.29;101336.34;4999590;28;20046;-87
2021/03/26 08:43:54;;;;;;;;;;;;;;;9.40;90.67;101338.78;5007760;28;20037;-87
2021/03/26 08:46:25;;;;;;;36.33;19.30;;;;;;;9.86;89.51;101329.72;5006395;28;19928;-87
2021/03/26 08:49:02;;;;;;;35.13;20.65;;;;;;;10.09;88.52;101337.50;4966447;28;20553;-87
2021/03/26 08:51:50;;;;;;;36.13;20.95;;;;;;;10.54;87.81;101330.06;4975855;28;20061;-87
2021/03/26 08:54:41;;;;;;;42.88;23.95;;;;;;;11.12;85.84;101334.75;5023649;28;20469;-87
2021/03/26 08:57:28;;;;;;;42.50;26.10;;;;;;;12.06;84.02;101337.00;5015502;28;20077;-92
2021/03/26 09:00:21;;;;;;;50.35;30.35;;;;;;;12.84;76.63;101333.84;5005348;28;20048;-88
2021/03/26 09:03:24;;;;;;;48.40;30.13;;;;;;;13.53;73.50;101329.81;5006510;28;20101;-89
2021/03/26 09:06:24;;;;;;;49.10;30.98;;;;;;;13.65;71.25;101334.88;4988725;28;20053;-89
2021/03/26 09:08:50;;;;;;;46.08;28.33;;;;;;;13.88;71.05;101337.00;4998233;28;20109;-88
2021/03/26 09:11:35;;;;;;;46.88;27.52;;;;;;;14.49;70.24;101334.66;4981588;28;20056;-89
2021/03/26 09:14:12;;;;;;;44.80;27.63;;;;;;;15.47;67.13;101340.78;5020531;28;20044;-89
2021/03/26 09:17:01;;;;;;;44.65;29.55;;;;;;;16.71;63.89;101335.00;4996761;28;20053;-89
2021/03/26 09:19:47;;;;;;;40.60;25.35;;;;;;;17.95;58.17;101336.59;4978925;28;20518;-89
2021/03/26 09:22:32;;;;;;;42.25;27.73;;;;;;;18.76;56.08;101333.22;4991019;28;20399;-89
2021/03/26 09:25:17;;;;;;;35.03;24.77;;;;;;;19.61;50.50;101333.81;4988002;28;20054;-89
2021/03/26 09:27:51;;;;;;;36.63;24.48;;;;;;;20.13;49.01;101336.66;4986945;28;20101;-89
2021/03/26 09:30:45;;;;;;;38.15;26.90;;;;;;;19.90;47.48;101340.47;4968319;28;20521;-74
2021/03/26 09:33:14;;;;;;;35.22;21.95;;;;;;;20.12;48.94;101328.69;4992590;28;20094;-73
2021/03/26 09:35:46;;;;;;;28.20;20.13;;;;;;;20.80;45.71;101344.00;4982971;28;20121;-72
2021/03/26 09:38:12;;;;;;;31.13;20.55;;;;;;;20.08;44.80;101329.78;4968375;28;20041;-73
2021/03/26 09:40:48;;;;;;;36.22;23.90;;;;;;;19.06;47.17;101328.28;4993982;28;20060;-73
2021/03/26 09:43:33;;;;;;;32.17;21.70;;;;;;;18.19;49.84;101328.50;5000584;28;20612;-72
2021/03/26 09:45:59;;;;;;;32.53;23.83;;;;;;;17.45;52.02;101328.72;4982227;28;20041;-74
2021/03/26 09:48:55;;;;;;;39.28;26.05;;;;;;;16.64;53.42;101327.22;4982697;28;21939;-71
2021/03/26 09:51:33;;;;;;;42.33;28.38;;;;;;;15.88;56.39;101326.19;5006729;28;20080;-71
2021/03/26 09:54:10;;;;;;;38.50;26.60;;;;;;;15.54;57.10;101318.34;4986984;28;20049;-72
2021/03/26 09:56:43;;;;;;;41.70;26.40;;;;;;;15.24;58.62;101319.28;5010381;28;20460;-72
2021/03/26 09:59:14;;;;;;;39.35;26.98;;;;;;;14.89;60.60;101318.50;5009664;28;20034;-72
2021/03/26 10:02:02;;;;;;;40.13;26.90;;;;;;;14.58;61.27;101315.81;5006660;28;20053;-72
2021/03/26 10:04:36;;;;;;;38.05;25.98;;;;;;;14.30;61.36;101313.84;4995322;28;20149;-71
2021/03/26 10:07:28;;;;;;;38.08;23.92;;;;;;;13.99;62.21;101305.75;4990254;28;20091;-73
2021/03/26 10:10:43;;;;;;;37.45;23.92;;;;;;;13.65;63.40;101305.66;5001508;28;20091;-72
2021/03/26 10:12:49;;;;;;;36.97;23.88;;;;;;;13.36;64.89;101310.72;5005593;28;20033;-72
2021/03/26 10:15:23;;;;;;;35.15;24.33;;;;;;;13.28;65.72;101305.59;5003238;28;20553;-72
2021/03/26 10:18:07;;;;;;;45.05;28.80;;;;;;;12.82;68.24;101308.28;5001712;28;20041;-73
2021/03/26 10:20:48;;;;;;;37.58;24.73;;;;;;;12.80;68.56;101294.19;4989090;28;20072;-72
2021/03/26 10:23:36;;;;;;;39.05;25.27;;;;;;;12.85;68.93;101301.13;4999441;28;20100;-71
2021/03/26 10:26:23;;;;;;;39.97;26.10;;;;;;;12.87;69.00;101311.72;5004906;28;20108;-72
2021/03/26 10:28:55;;;;;;;41.10;25.63;;;;;;;13.01;68.81;101314.09;5001460;28;20795;-74
2021/03/26 10:31:30;;;;;;;39.83;26.75;;;;;;;13.11;69.31;101310.34;5007318;28;20520;-71
2021/03/26 10:33:59;;;;;;;48.63;29.98;;;;;;;13.25;68.55;101310.97;5003875;28;20049;-72
2021/03/26 10:36:31;;;;;;;43.13;26.83;;;;;;;13.39;67.91;101311.56;5005651;28;20115;-73
2021/03/26 10:39:10;;;;;;;48.05;27.65;;;;;;;13.61;67.60;101314.59;4999819;28;20037;-72
2021/03/26 10:41:48;;;;;;;42.17;26.77;;;;;;;14.03;67.05;101298.56;4991223;28;20073;-72
2021/03/26 10:44:23;;;;;;;43.75;25.42;;;;;;;14.36;65.24;101307.47;5005321;28;20060;-74
2021/03/26 10:46:49;;;;;;;;;;;;;;;14.57;64.31;101296.31;5007420;28;20107;-73
2021/03/26 10:49:21;;;;;;;40.78;26.58;;;;;;;15.03;61.79;101294.16;5005735;28;19929;-72
2021/03/26 10:51:50;;;;;;;41.88;27.23;;;;;;;15.50;61.69;101290.09;5005392;28;20072;-71
2021/03/26 10:54:29;;;;;;;44.63;27.50;;;;;;;16.15;58.50;101284.47;5002971;28;20052;-73
2021/03/26 10:57:07;;;;;;;47.58;30.48;;;;;;;16.63;55.15;101283.69;4978816;28;20049;-72
2021/03/26 10:59:41;;;;;;;47.33;30.50;;;;;;;17.23;53.11;101279.72;5003859;28;20705;-73
2021/03/26 11:02:26;;;;;;;41.67;25.88;;;;;;;18.04;51.72;101276.50;5012134;28;20049;-72
2021/03/26 11:05:32;;;;;;;40.40;26.73;;;;;;;18.36;50.72;101275.16;5022249;28;20040;-72
2021/03/26 11:08:01;;;;;;;41.72;26.17;;;;;;;18.79;51.05;101267.94;5002322;28;20049;-73
2021/03/26 11:10:46;;;;;;;47.97;32.05;;;;;;;19.47;46.94;101263.88;5003815;28;20039;-73
2021/03/26 11:13:39;;;;;;;44.25;29.05;;;;;;;20.47;47.29;101266.06;5006164;28;20087;-73
2021/03/26 11:16:29;;;;;;;40.22;27.63;;;;;;;21.76;43.62;101259.03;5001776;28;20103;-72
2021/03/26 11:19:00;;;;;;;40.83;28.63;;;;;;;21.03;41.68;101256.81;4987797;28;20045;-73
2021/03/26 11:21:42;;;;;;;38.05;25.40;;;;;;;20.97;43.27;101253.59;5003498;28;20037;-72
2021/03/26 11:24:10;;;;;;;40.55;27.50;;;;;;;20.54;44.33;101253.22;4990213;28;20053;-72
2021/03/26 11:26:42;;;;;;;37.25;26.23;;;;;;;20.03;45.32;101252.22;5006577;28;20033;-72
2021/03/26 11:29:24;;;;;;;36.38;28.65;;;;;;;19.46;46.50;101242.53;5021049;28;20084;-71
2021/03/26 11:32:01;;;;;;;37.70;29.40;;;;;;;19.07;48.07;101244.31;5009029;28;20045;-69
2021/03/26 11:34:36;;;;;;;41.20;28.38;;;;;;;19.64;47.20;101241.66;5017326;28;20068;-69
2021/03/26 11:37:23;;;;;;;43.75;30.38;;;;;;;19.70;45.91;101237.81;4985055;28;20049;-70
2021/03/26 11:39:56;;;;;;;40.08;27.13;;;;;;;18.78;47.76;101242.13;5014437;28;20792;-69
2021/03/26 11:42:44;;;;;;;37.60;26.45;;;;;;;18.59;49.58;101238.50;5001883;28;20046;-69
2021/03/26 11:45:48;;;;;;;36.92;26.30;;;;;;;18.79;50.60;101233.16;5019680;28;20046;-72
2021/03/26 11:48:34;;;;;;;;;;;;;;;19.10;49.77;101233.47;4994266;28;20159;-72
2021/03/26 11:51:06;;;;;;;41.60;27.73;;;;;;;19.15;47.22;101227.03;5007119;28;19921;-72
2021/03/26 11:53:40;;;;;;;40.15;27.25;;;;;;;18.65;48.31;101224.84;4984145;28;20099;-69
2021/03/26 11:56:11;;;;;;;53.63;34.63;;;;;;;17.86;49.08;101229.16;5006877;28;20041;-70
2021/03/26 11:58:55;;;;;;;44.72;28.55;;;;;;;17.53;50.39;101229.56;4994622;28;20244;-69
2021/03/26 12:01:27;;;;;;;36.25;26.48;;;;;;;17.20;51.13;101229.09;4988065;28;20049;-70